sensor_id;sensor_type;location;lat;lon;timestamp;temperature;humidity
13798;DHT22;6970;51.340;3.240;2023-12-28T00:00:58;10.90;99.90
13798;DHT22;6970;51.340;3.240;2023-12-28T00:03:28;10.90;99.90
13798;DHT22;6970;51.340;3.240;2023-12-28T00:05:57;11.00;99.90
13798;DHT22;6970;51.340;3.240;2023-12-28T00:08:24;11.00;99.90
13798;DHT22;6970;51.340;3.240;2023-12-28T00:10:51;11.00;99.90
13798;DHT22;6970;51.340;3.240;2023-12-28T00:13:20;11.00;99.90
13798;DHT22;6970;51.340;3.240;2023-12-28T00:15:50;11.00;99.90
13798;DHT22;6970;51.340;3.240;2023-12-28T00:18:21;11.00;99.90
13798;DHT22;6970;51.340;3.240;2023-12-28T00:20:49;11.00;99.90
13798;DHT22;6970;51.340;3.240;2023-12-28T00:23:18;11.00;99.90
13798;DHT22;6970;51.340;3.240;2023-12-28T00:25:49;11.00;99.90
13798;DHT22;6970;51.340;3.240;2023-12-28T00:28:20;11.00;99.90
13798;DHT22;6970;51.340;3.240;2023-12-28T00:30:48;11.00;99.90
13798;DHT22;6970;51.340;3.240;2023-12-28T00:33:18;11.00;99.90
13798;DHT22;6970;51.340;3.240;2023-12-28T00:35:48;11.00;99.90
13798;DHT22;6970;51.340;3.240;2023-12-28T00:38:18;11.10;99.90
13798;DHT22;6970;51.340;3.240;2023-12-28T00:40:49;11.10;99.90
13798;DHT22;6970;51.340;3.240;2023-12-28T00:43:16;11.10;99.90
13798;DHT22;6970;51.340;3.240;2023-12-28T00:45:46;11.10;99.90
13798;DHT22;6970;51.340;3.240;2023-12-28T00:48:16;11.10;99.90
13798;DHT22;6970;51.340;3.240;2023-12-28T00:50:50;11.10;99.90
13798;DHT22;6970;51.340;3.240;2023-12-28T00:53:19;11.10;99.90
13798;DHT22;6970;51.340;3.240;2023-12-28T00:55:48;11.10;99.90
13798;DHT22;6970;51.340;3.240;2023-12-28T00:58:18;11.10;99.90
13798;DHT22;6970;51.340;3.240;2023-12-28T01:00:45;11.10;99.90
13798;DHT22;6970;51.340;3.240;2023-12-28T01:03:12;11.10;99.90
13798;DHT22;6970;51.340;3.240;2023-12-28T01:05:40;11.10;99.90
13798;DHT22;6970;51.340;3.240;2023-12-28T01:08:08;11.10;99.90
13798;DHT22;6970;51.340;3.240;2023-12-28T01:10:41;11.10;99.90
13798;DHT22;6970;51.340;3.240;2023-12-28T01:13:14;11.10;99.90
13798;DHT22;6970;51.340;3.240;2023-12-28T01:15:41;11.10;99.90
13798;DHT22;6970;51.340;3.240;2023-12-28T01:18:10;11.10;99.90
13798;DHT22;6970;51.340;3.240;2023-12-28T01:20:39;11.10;99.90
13798;DHT22;6970;51.340;3.240;2023-12-28T01:23:08;11.10;99.90
13798;DHT22;6970;51.340;3.240;2023-12-28T01:25:38;11.10;99.90
13798;DHT22;6970;51.340;3.240;2023-12-28T01:28:08;11.10;99.90
13798;DHT22;6970;51.340;3.240;2023-12-28T01:30:38;11.10;99.90
13798;DHT22;6970;51.340;3.240;2023-12-28T01:33:08;11.10;99.90
13798;DHT22;6970;51.340;3.240;2023-12-28T01:35:37;11.10;99.90
13798;DHT22;6970;51.340;3.240;2023-12-28T01:38:05;11.10;99.90
13798;DHT22;6970;51.340;3.240;2023-12-28T01:40:35;11.10;99.90
13798;DHT22;6970;51.340;3.240;2023-12-28T01:43:05;11.10;99.90
13798;DHT22;6970;51.340;3.240;2023-12-28T01:45:35;11.10;99.90
13798;DHT22;6970;51.340;3.240;2023-12-28T01:48:05;11.10;99.90
13798;DHT22;6970;51.340;3.240;2023-12-28T01:50:35;11.00;99.90
13798;DHT22;6970;51.340;3.240;2023-12-28T01:53:06;11.00;99.90
13798;DHT22;6970;51.340;3.240;2023-12-28T01:55:36;11.00;99.90
13798;DHT22;6970;51.340;3.240;2023-12-28T01:58:07;11.00;99.90
13798;DHT22;6970;51.340;3.240;2023-12-28T02:00:37;11.00;99.90
13798;DHT22;6970;51.340;3.240;2023-12-28T02:03:06;11.00;99.90
13798;DHT22;6970;51.340;3.240;2023-12-28T02:05:37;11.00;99.90
13798;DHT22;6970;51.340;3.240;2023-12-28T02:08:11;11.10;99.90
13798;DHT22;6970;51.340;3.240;2023-12-28T02:10:42;11.10;99.90
13798;DHT22;6970;51.340;3.240;2023-12-28T02:13:12;11.10;99.90
13798;DHT22;6970;51.340;3.240;2023-12-28T02:15:40;11.10;99.90
13798;DHT22;6970;51.340;3.240;2023-12-28T02:18:19;11.10;99.90
13798;DHT22;6970;51.340;3.240;2023-12-28T02:20:48;11.00;99.90
13798;DHT22;6970;51.340;3.240;2023-12-28T02:23:17;11.00;99.90
13798;DHT22;6970;51.340;3.240;2023-12-28T02:25:46;11.10;99.90
13798;DHT22;6970;51.340;3.240;2023-12-28T02:28:17;11.10;99.90
13798;DHT22;6970;51.340;3.240;2023-12-28T02:30:45;11.10;99.90
13798;DHT22;6970;51.340;3.240;2023-12-28T02:33:29;11.00;99.90
13798;DHT22;6970;51.340;3.240;2023-12-28T02:36:13;11.00;99.90
13798;DHT22;6970;51.340;3.240;2023-12-28T02:38:43;11.10;99.90
13798;DHT22;6970;51.340;3.240;2023-12-28T02:41:17;11.10;99.90
13798;DHT22;6970;51.340;3.240;2023-12-28T02:43:51;11.00;99.90
13798;DHT22;6970;51.340;3.240;2023-12-28T02:46:20;11.00;99.90
13798;DHT22;6970;51.340;3.240;2023-12-28T02:48:49;11.00;99.90
13798;DHT22;6970;51.340;3.240;2023-12-28T02:51:18;11.00;99.90
13798;DHT22;6970;51.340;3.240;2023-12-28T02:53:47;11.00;99.90
13798;DHT22;6970;51.340;3.240;2023-12-28T02:56:16;11.00;99.90
13798;DHT22;6970;51.340;3.240;2023-12-28T02:58:46;10.90;99.90
13798;DHT22;6970;51.340;3.240;2023-12-28T03:01:17;10.90;99.90
13798;DHT22;6970;51.340;3.240;2023-12-28T03:03:44;10.90;99.90
13798;DHT22;6970;51.340;3.240;2023-12-28T03:06:18;10.90;99.90
13798;DHT22;6970;51.340;3.240;2023-12-28T03:08:47;10.90;99.90
13798;DHT22;6970;51.340;3.240;2023-12-28T03:11:14;10.90;99.90
13798;DHT22;6970;51.340;3.240;2023-12-28T03:13:41;10.90;99.90
13798;DHT22;6970;51.340;3.240;2023-12-28T03:16:10;10.90;99.90
13798;DHT22;6970;51.340;3.240;2023-12-28T03:18:40;10.90;99.90
13798;DHT22;6970;51.340;3.240;2023-12-28T03:21:10;10.90;99.90
13798;DHT22;6970;51.340;3.240;2023-12-28T03:23:40;11.00;99.90
13798;DHT22;6970;51.340;3.240;2023-12-28T03:26:08;11.00;99.90
13798;DHT22;6970;51.340;3.240;2023-12-28T03:28:38;11.00;99.90
13798;DHT22;6970;51.340;3.240;2023-12-28T03:31:09;11.00;99.90
13798;DHT22;6970;51.340;3.240;2023-12-28T03:33:40;11.00;99.90
13798;DHT22;6970;51.340;3.240;2023-12-28T03:36:08;11.00;99.90
13798;DHT22;6970;51.340;3.240;2023-12-28T03:38:47;11.10;99.90
13798;DHT22;6970;51.340;3.240;2023-12-28T03:41:33;11.10;99.90
13798;DHT22;6970;51.340;3.240;2023-12-28T03:44:00;11.10;99.90
13798;DHT22;6970;51.340;3.240;2023-12-28T03:46:30;11.10;99.90
13798;DHT22;6970;51.340;3.240;2023-12-28T03:48:57;11.10;99.90
13798;DHT22;6970;51.340;3.240;2023-12-28T03:51:24;11.20;99.90
13798;DHT22;6970;51.340;3.240;2023-12-28T03:53:52;11.20;99.90
13798;DHT22;6970;51.340;3.240;2023-12-28T03:56:24;11.20;99.90
13798;DHT22;6970;51.340;3.240;2023-12-28T03:58:54;11.10;99.90
13798;DHT22;6970;51.340;3.240;2023-12-28T04:01:25;11.20;99.90
13798;DHT22;6970;51.340;3.240;2023-12-28T04:03:55;11.10;99.90
13798;DHT22;6970;51.340;3.240;2023-12-28T04:06:23;11.10;99.90
13798;DHT22;6970;51.340;3.240;2023-12-28T04:08:52;11.10;99.90
13798;DHT22;6970;51.340;3.240;2023-12-28T04:11:19;11.10;99.90
13798;DHT22;6970;51.340;3.240;2023-12-28T04:13:47;11.10;99.90
13798;DHT22;6970;51.340;3.240;2023-12-28T04:16:18;11.20;99.90
13798;DHT22;6970;51.340;3.240;2023-12-28T04:18:46;11.20;99.90
13798;DHT22;6970;51.340;3.240;2023-12-28T04:21:17;11.10;99.90
13798;DHT22;6970;51.340;3.240;2023-12-28T04:23:44;11.10;99.90
13798;DHT22;6970;51.340;3.240;2023-12-28T04:26:13;11.20;99.90
13798;DHT22;6970;51.340;3.240;2023-12-28T04:28:42;11.20;99.90
13798;DHT22;6970;51.340;3.240;2023-12-28T04:31:09;11.20;99.90
13798;DHT22;6970;51.340;3.240;2023-12-28T04:33:40;11.20;99.90
13798;DHT22;6970;51.340;3.240;2023-12-28T04:36:10;11.20;99.90
13798;DHT22;6970;51.340;3.240;2023-12-28T04:38:43;11.20;99.90
13798;DHT22;6970;51.340;3.240;2023-12-28T04:41:13;11.20;99.90
13798;DHT22;6970;51.340;3.240;2023-12-28T04:43:40;11.20;99.90
13798;DHT22;6970;51.340;3.240;2023-12-28T04:46:07;11.10;99.90
13798;DHT22;6970;51.340;3.240;2023-12-28T04:48:37;11.10;99.90
13798;DHT22;6970;51.340;3.240;2023-12-28T04:51:11;11.10;99.90
13798;DHT22;6970;51.340;3.240;2023-12-28T04:53:41;11.10;99.90
13798;DHT22;6970;51.340;3.240;2023-12-28T04:56:11;11.10;99.90
13798;DHT22;6970;51.340;3.240;2023-12-28T04:58:40;11.10;99.90
13798;DHT22;6970;51.340;3.240;2023-12-28T05:01:08;11.10;99.90
13798;DHT22;6970;51.340;3.240;2023-12-28T05:03:38;11.10;99.90
13798;DHT22;6970;51.340;3.240;2023-12-28T05:06:05;11.10;99.90
13798;DHT22;6970;51.340;3.240;2023-12-28T05:09:01;11.10;99.90
13798;DHT22;6970;51.340;3.240;2023-12-28T05:11:28;11.10;99.90
13798;DHT22;6970;51.340;3.240;2023-12-28T05:13:57;11.10;99.90
13798;DHT22;6970;51.340;3.240;2023-12-28T05:16:27;11.10;99.90
13798;DHT22;6970;51.340;3.240;2023-12-28T05:18:57;11.10;99.90
13798;DHT22;6970;51.340;3.240;2023-12-28T05:21:28;11.10;99.90
13798;DHT22;6970;51.340;3.240;2023-12-28T05:23:56;11.00;99.90
13798;DHT22;6970;51.340;3.240;2023-12-28T05:26:23;11.00;99.90
13798;DHT22;6970;51.340;3.240;2023-12-28T05:28:52;11.00;99.90
13798;DHT22;6970;51.340;3.240;2023-12-28T05:31:21;11.00;99.90
13798;DHT22;6970;51.340;3.240;2023-12-28T05:33:48;11.00;99.90
13798;DHT22;6970;51.340;3.240;2023-12-28T05:36:16;10.90;99.90
13798;DHT22;6970;51.340;3.240;2023-12-28T05:38:43;11.00;99.90
13798;DHT22;6970;51.340;3.240;2023-12-28T05:41:13;11.00;99.90
13798;DHT22;6970;51.340;3.240;2023-12-28T05:43:43;10.90;99.90
13798;DHT22;6970;51.340;3.240;2023-12-28T05:46:13;10.90;99.90
13798;DHT22;6970;51.340;3.240;2023-12-28T05:48:46;10.90;99.90
13798;DHT22;6970;51.340;3.240;2023-12-28T05:51:14;10.90;99.90
13798;DHT22;6970;51.340;3.240;2023-12-28T05:53:44;10.80;99.90
13798;DHT22;6970;51.340;3.240;2023-12-28T05:56:13;10.80;99.90
13798;DHT22;6970;51.340;3.240;2023-12-28T05:58:40;10.80;99.90
13798;DHT22;6970;51.340;3.240;2023-12-28T06:01:10;10.90;99.90
13798;DHT22;6970;51.340;3.240;2023-12-28T06:03:38;10.80;99.90
13798;DHT22;6970;51.340;3.240;2023-12-28T06:06:06;10.90;99.90
13798;DHT22;6970;51.340;3.240;2023-12-28T06:08:34;10.90;99.90
13798;DHT22;6970;51.340;3.240;2023-12-28T06:11:04;10.90;99.90
13798;DHT22;6970;51.340;3.240;2023-12-28T06:13:31;10.90;99.90
13798;DHT22;6970;51.340;3.240;2023-12-28T06:16:00;10.90;99.90
13798;DHT22;6970;51.340;3.240;2023-12-28T06:18:31;10.90;99.90
13798;DHT22;6970;51.340;3.240;2023-12-28T06:21:01;10.90;99.90
13798;DHT22;6970;51.340;3.240;2023-12-28T06:23:32;10.90;99.90
13798;DHT22;6970;51.340;3.240;2023-12-28T06:26:06;10.90;99.90
13798;DHT22;6970;51.340;3.240;2023-12-28T06:28:37;10.90;99.90
13798;DHT22;6970;51.340;3.240;2023-12-28T06:31:07;10.90;99.90
13798;DHT22;6970;51.340;3.240;2023-12-28T06:33:38;10.90;99.90
13798;DHT22;6970;51.340;3.240;2023-12-28T06:36:08;10.90;99.90
13798;DHT22;6970;51.340;3.240;2023-12-28T06:38:38;10.90;99.90
13798;DHT22;6970;51.340;3.240;2023-12-28T06:41:14;10.90;99.90
13798;DHT22;6970;51.340;3.240;2023-12-28T06:43:43;10.90;99.90
13798;DHT22;6970;51.340;3.240;2023-12-28T06:46:10;10.90;99.90
13798;DHT22;6970;51.340;3.240;2023-12-28T06:48:40;10.90;99.90
13798;DHT22;6970;51.340;3.240;2023-12-28T06:51:10;10.90;99.90
13798;DHT22;6970;51.340;3.240;2023-12-28T06:53:46;10.90;99.90
13798;DHT22;6970;51.340;3.240;2023-12-28T06:56:19;10.90;99.90
13798;DHT22;6970;51.340;3.240;2023-12-28T06:58:50;10.90;99.90
13798;DHT22;6970;51.340;3.240;2023-12-28T07:01:20;11.00;99.90
13798;DHT22;6970;51.340;3.240;2023-12-28T07:03:50;11.00;99.90
13798;DHT22;6970;51.340;3.240;2023-12-28T07:06:18;11.00;99.90
13798;DHT22;6970;51.340;3.240;2023-12-28T07:08:49;11.00;99.90
13798;DHT22;6970;51.340;3.240;2023-12-28T07:11:17;11.00;99.90
13798;DHT22;6970;51.340;3.240;2023-12-28T07:13:45;11.00;99.90
13798;DHT22;6970;51.340;3.240;2023-12-28T07:16:18;11.00;99.90
13798;DHT22;6970;51.340;3.240;2023-12-28T07:18:47;11.00;99.90
13798;DHT22;6970;51.340;3.240;2023-12-28T07:21:16;11.00;99.90
13798;DHT22;6970;51.340;3.240;2023-12-28T07:23:43;11.00;99.90
13798;DHT22;6970;51.340;3.240;2023-12-28T07:26:19;11.10;99.90
13798;DHT22;6970;51.340;3.240;2023-12-28T07:28:49;11.10;99.90
13798;DHT22;6970;51.340;3.240;2023-12-28T07:31:27;11.10;99.90
13798;DHT22;6970;51.340;3.240;2023-12-28T07:33:57;11.10;99.90
13798;DHT22;6970;51.340;3.240;2023-12-28T07:36:24;11.10;99.90
13798;DHT22;6970;51.340;3.240;2023-12-28T07:38:55;11.10;99.90
13798;DHT22;6970;51.340;3.240;2023-12-28T07:41:25;11.10;99.90
13798;DHT22;6970;51.340;3.240;2023-12-28T07:43:52;11.10;99.90
13798;DHT22;6970;51.340;3.240;2023-12-28T07:46:21;11.10;99.90
13798;DHT22;6970;51.340;3.240;2023-12-28T07:48:49;11.10;99.90
13798;DHT22;6970;51.340;3.240;2023-12-28T07:51:18;11.10;99.90
13798;DHT22;6970;51.340;3.240;2023-12-28T07:53:45;11.10;99.90
13798;DHT22;6970;51.340;3.240;2023-12-28T07:56:13;11.10;99.90
13798;DHT22;6970;51.340;3.240;2023-12-28T07:58:41;11.10;99.90
13798;DHT22;6970;51.340;3.240;2023-12-28T08:01:18;11.10;99.90
13798;DHT22;6970;51.340;3.240;2023-12-28T08:03:46;11.10;99.90
13798;DHT22;6970;51.340;3.240;2023-12-28T08:06:16;11.10;99.90
13798;DHT22;6970;51.340;3.240;2023-12-28T08:08:46;11.10;99.90
13798;DHT22;6970;51.340;3.240;2023-12-28T08:11:15;11.20;99.90
13798;DHT22;6970;51.340;3.240;2023-12-28T08:13:44;11.20;99.90
13798;DHT22;6970;51.340;3.240;2023-12-28T08:16:14;11.20;99.90
13798;DHT22;6970;51.340;3.240;2023-12-28T08:18:44;11.20;99.90
13798;DHT22;6970;51.340;3.240;2023-12-28T08:21:12;11.20;99.90
13798;DHT22;6970;51.340;3.240;2023-12-28T08:23:43;11.20;99.90
13798;DHT22;6970;51.340;3.240;2023-12-28T08:26:13;11.20;99.90
13798;DHT22;6970;51.340;3.240;2023-12-28T08:28:43;11.20;99.90
13798;DHT22;6970;51.340;3.240;2023-12-28T08:31:16;11.20;99.90
13798;DHT22;6970;51.340;3.240;2023-12-28T08:33:46;11.20;99.90
13798;DHT22;6970;51.340;3.240;2023-12-28T08:36:17;11.20;99.90
13798;DHT22;6970;51.340;3.240;2023-12-28T08:38:47;11.20;99.90
13798;DHT22;6970;51.340;3.240;2023-12-28T08:41:21;11.20;99.90
13798;DHT22;6970;51.340;3.240;2023-12-28T08:43:53;11.30;99.90
13798;DHT22;6970;51.340;3.240;2023-12-28T08:46:23;11.30;99.90
13798;DHT22;6970;51.340;3.240;2023-12-28T08:48:54;11.30;99.90
13798;DHT22;6970;51.340;3.240;2023-12-28T08:51:22;11.40;99.90
13798;DHT22;6970;51.340;3.240;2023-12-28T08:53:52;11.60;99.90
13798;DHT22;6970;51.340;3.240;2023-12-28T08:56:22;11.70;99.90
13798;DHT22;6970;51.340;3.240;2023-12-28T08:58:53;11.80;99.90
13798;DHT22;6970;51.340;3.240;2023-12-28T09:01:22;11.90;99.90
13798;DHT22;6970;51.340;3.240;2023-12-28T09:03:52;11.90;99.90
13798;DHT22;6970;51.340;3.240;2023-12-28T09:06:23;11.80;99.90
13798;DHT22;6970;51.340;3.240;2023-12-28T09:08:51;11.80;99.90
13798;DHT22;6970;51.340;3.240;2023-12-28T09:11:21;11.80;99.90
13798;DHT22;6970;51.340;3.240;2023-12-28T09:13:48;11.90;99.90
13798;DHT22;6970;51.340;3.240;2023-12-28T09:16:16;12.00;99.90
13798;DHT22;6970;51.340;3.240;2023-12-28T09:18:43;12.10;99.90
13798;DHT22;6970;51.340;3.240;2023-12-28T09:21:11;12.20;99.90
13798;DHT22;6970;51.340;3.240;2023-12-28T09:23:39;12.20;99.90
13798;DHT22;6970;51.340;3.240;2023-12-28T09:26:08;12.30;99.90
13798;DHT22;6970;51.340;3.240;2023-12-28T09:28:38;12.30;99.90
13798;DHT22;6970;51.340;3.240;2023-12-28T09:31:08;12.40;99.90
13798;DHT22;6970;51.340;3.240;2023-12-28T09:33:37;12.50;99.90
13798;DHT22;6970;51.340;3.240;2023-12-28T09:36:05;12.70;99.90
13798;DHT22;6970;51.340;3.240;2023-12-28T09:38:36;12.70;99.90
13798;DHT22;6970;51.340;3.240;2023-12-28T09:41:12;12.60;99.90
13798;DHT22;6970;51.340;3.240;2023-12-28T09:43:54;12.50;99.90
13798;DHT22;6970;51.340;3.240;2023-12-28T09:46:24;12.40;99.90
13798;DHT22;6970;51.340;3.240;2023-12-28T09:48:54;12.40;99.90
13798;DHT22;6970;51.340;3.240;2023-12-28T09:51:24;12.20;99.90
13798;DHT22;6970;51.340;3.240;2023-12-28T09:53:58;12.10;99.90
13798;DHT22;6970;51.340;3.240;2023-12-28T09:56:26;12.00;99.90
13798;DHT22;6970;51.340;3.240;2023-12-28T09:58:59;12.00;99.90
13798;DHT22;6970;51.340;3.240;2023-12-28T10:01:27;11.90;99.90
13798;DHT22;6970;51.340;3.240;2023-12-28T10:03:54;11.90;99.90
13798;DHT22;6970;51.340;3.240;2023-12-28T10:06:22;12.00;99.90
13798;DHT22;6970;51.340;3.240;2023-12-28T10:08:49;12.00;99.90
13798;DHT22;6970;51.340;3.240;2023-12-28T10:11:17;12.20;99.90
13798;DHT22;6970;51.340;3.240;2023-12-28T10:13:45;12.20;99.90
13798;DHT22;6970;51.340;3.240;2023-12-28T10:16:13;12.20;99.90
13798;DHT22;6970;51.340;3.240;2023-12-28T10:18:43;12.20;99.90
13798;DHT22;6970;51.340;3.240;2023-12-28T10:21:13;12.10;99.90
13798;DHT22;6970;51.340;3.240;2023-12-28T10:23:43;12.20;99.90
13798;DHT22;6970;51.340;3.240;2023-12-28T10:26:13;12.20;99.90
13798;DHT22;6970;51.340;3.240;2023-12-28T10:28:41;12.10;99.90
13798;DHT22;6970;51.340;3.240;2023-12-28T10:31:12;12.00;99.90
13798;DHT22;6970;51.340;3.240;2023-12-28T10:33:45;12.00;99.90
13798;DHT22;6970;51.340;3.240;2023-12-28T10:36:16;11.90;99.90
13798;DHT22;6970;51.340;3.240;2023-12-28T10:38:45;11.90;99.90
13798;DHT22;6970;51.340;3.240;2023-12-28T10:41:18;11.80;99.90
13798;DHT22;6970;51.340;3.240;2023-12-28T10:44:03;11.80;99.90
13798;DHT22;6970;51.340;3.240;2023-12-28T10:46:47;11.80;99.90
13798;DHT22;6970;51.340;3.240;2023-12-28T10:49:21;11.80;99.90
13798;DHT22;6970;51.340;3.240;2023-12-28T10:51:56;11.80;99.90
13798;DHT22;6970;51.340;3.240;2023-12-28T10:54:52;11.90;99.90
13798;DHT22;6970;51.340;3.240;2023-12-28T11:00:26;12.10;99.90
13798;DHT22;6970;51.340;3.240;2023-12-28T11:03:02;12.20;99.90
13798;DHT22;6970;51.340;3.240;2023-12-28T11:05:31;12.40;99.90
13798;DHT22;6970;51.340;3.240;2023-12-28T11:08:00;12.60;99.90
13798;DHT22;6970;51.340;3.240;2023-12-28T11:10:33;12.70;99.90
13798;DHT22;6970;51.340;3.240;2023-12-28T11:13:02;12.80;99.90
13798;DHT22;6970;51.340;3.240;2023-12-28T11:15:33;13.00;99.90
13798;DHT22;6970;51.340;3.240;2023-12-28T11:18:05;13.00;99.90
13798;DHT22;6970;51.340;3.240;2023-12-28T11:20:33;13.10;99.90
13798;DHT22;6970;51.340;3.240;2023-12-28T11:23:03;13.10;99.90
13798;DHT22;6970;51.340;3.240;2023-12-28T11:25:33;13.00;99.90
13798;DHT22;6970;51.340;3.240;2023-12-28T11:28:12;12.90;99.90
13798;DHT22;6970;51.340;3.240;2023-12-28T11:30:41;12.90;99.90
13798;DHT22;6970;51.340;3.240;2023-12-28T11:33:10;12.70;99.90
13798;DHT22;6970;51.340;3.240;2023-12-28T11:35:41;12.60;99.90
13798;DHT22;6970;51.340;3.240;2023-12-28T11:38:11;12.60;99.90
13798;DHT22;6970;51.340;3.240;2023-12-28T11:40:45;12.50;99.90
13798;DHT22;6970;51.340;3.240;2023-12-28T11:43:20;12.50;99.90
13798;DHT22;6970;51.340;3.240;2023-12-28T11:45:57;12.40;99.90
13798;DHT22;6970;51.340;3.240;2023-12-28T11:48:28;12.40;99.90
13798;DHT22;6970;51.340;3.240;2023-12-28T11:51:01;12.40;99.90
13798;DHT22;6970;51.340;3.240;2023-12-28T11:53:29;12.30;99.90
13798;DHT22;6970;51.340;3.240;2023-12-28T11:56:01;12.30;99.90
13798;DHT22;6970;51.340;3.240;2023-12-28T11:58:30;12.30;99.90
13798;DHT22;6970;51.340;3.240;2023-12-28T12:00:59;12.40;99.90
13798;DHT22;6970;51.340;3.240;2023-12-28T12:03:27;12.60;99.90
13798;DHT22;6970;51.340;3.240;2023-12-28T12:05:57;12.70;99.90
13798;DHT22;6970;51.340;3.240;2023-12-28T12:08:27;12.80;99.90
13798;DHT22;6970;51.340;3.240;2023-12-28T12:11:05;12.90;99.90
13798;DHT22;6970;51.340;3.240;2023-12-28T12:13:36;13.00;99.90
13798;DHT22;6970;51.340;3.240;2023-12-28T12:16:04;13.00;99.90
13798;DHT22;6970;51.340;3.240;2023-12-28T12:18:37;13.00;99.90
13798;DHT22;6970;51.340;3.240;2023-12-28T12:21:04;12.80;99.90
13798;DHT22;6970;51.340;3.240;2023-12-28T12:23:34;12.80;99.90
13798;DHT22;6970;51.340;3.240;2023-12-28T12:26:07;12.70;99.90
13798;DHT22;6970;51.340;3.240;2023-12-28T12:28:36;12.60;99.90
13798;DHT22;6970;51.340;3.240;2023-12-28T12:31:03;12.40;99.90
13798;DHT22;6970;51.340;3.240;2023-12-28T12:33:31;12.40;99.90
13798;DHT22;6970;51.340;3.240;2023-12-28T12:36:00;12.30;99.90
13798;DHT22;6970;51.340;3.240;2023-12-28T12:38:28;12.30;99.90
13798;DHT22;6970;51.340;3.240;2023-12-28T12:40:58;12.30;99.90
13798;DHT22;6970;51.340;3.240;2023-12-28T12:43:28;12.20;99.90
13798;DHT22;6970;51.340;3.240;2023-12-28T12:45:56;12.20;99.90
13798;DHT22;6970;51.340;3.240;2023-12-28T12:48:26;12.20;99.90
13798;DHT22;6970;51.340;3.240;2023-12-28T12:50:56;12.20;99.90
13798;DHT22;6970;51.340;3.240;2023-12-28T12:53:25;12.10;99.90
13798;DHT22;6970;51.340;3.240;2023-12-28T12:55:55;12.10;99.90
13798;DHT22;6970;51.340;3.240;2023-12-28T12:58:25;12.10;99.90
13798;DHT22;6970;51.340;3.240;2023-12-28T13:00:57;12.10;99.90
13798;DHT22;6970;51.340;3.240;2023-12-28T13:03:28;12.10;99.90
13798;DHT22;6970;51.340;3.240;2023-12-28T13:06:00;12.10;99.90
13798;DHT22;6970;51.340;3.240;2023-12-28T13:08:30;12.10;99.90
13798;DHT22;6970;51.340;3.240;2023-12-28T13:11:00;12.20;99.90
13798;DHT22;6970;51.340;3.240;2023-12-28T13:13:29;12.30;99.90
13798;DHT22;6970;51.340;3.240;2023-12-28T13:15:58;12.30;99.90
13798;DHT22;6970;51.340;3.240;2023-12-28T13:18:25;12.40;99.90
13798;DHT22;6970;51.340;3.240;2023-12-28T13:20:53;12.40;99.90
13798;DHT22;6970;51.340;3.240;2023-12-28T13:23:26;12.50;99.90
13798;DHT22;6970;51.340;3.240;2023-12-28T13:25:58;12.60;99.90
13798;DHT22;6970;51.340;3.240;2023-12-28T13:28:26;12.80;99.90
13798;DHT22;6970;51.340;3.240;2023-12-28T13:30:56;12.90;99.90
13798;DHT22;6970;51.340;3.240;2023-12-28T13:33:27;13.00;99.90
13798;DHT22;6970;51.340;3.240;2023-12-28T13:35:55;13.00;99.90
13798;DHT22;6970;51.340;3.240;2023-12-28T13:38:22;13.00;99.90
13798;DHT22;6970;51.340;3.240;2023-12-28T13:40:51;13.00;99.90
13798;DHT22;6970;51.340;3.240;2023-12-28T13:43:21;12.90;99.90
13798;DHT22;6970;51.340;3.240;2023-12-28T13:45:51;12.90;99.90
13798;DHT22;6970;51.340;3.240;2023-12-28T13:48:19;12.80;99.90
13798;DHT22;6970;51.340;3.240;2023-12-28T13:50:47;12.80;99.90
13798;DHT22;6970;51.340;3.240;2023-12-28T13:53:14;12.80;99.90
13798;DHT22;6970;51.340;3.240;2023-12-28T13:55:45;12.80;99.90
13798;DHT22;6970;51.340;3.240;2023-12-28T13:58:12;12.80;99.90
13798;DHT22;6970;51.340;3.240;2023-12-28T14:00:40;12.70;99.90
13798;DHT22;6970;51.340;3.240;2023-12-28T14:03:08;12.70;99.90
13798;DHT22;6970;51.340;3.240;2023-12-28T14:05:38;12.70;99.90
13798;DHT22;6970;51.340;3.240;2023-12-28T14:08:09;12.60;99.90
13798;DHT22;6970;51.340;3.240;2023-12-28T14:10:39;12.60;99.90
13798;DHT22;6970;51.340;3.240;2023-12-28T14:13:09;12.50;99.90
13798;DHT22;6970;51.340;3.240;2023-12-28T14:15:38;12.50;99.90
13798;DHT22;6970;51.340;3.240;2023-12-28T14:18:08;12.40;99.90
13798;DHT22;6970;51.340;3.240;2023-12-28T14:20:39;12.40;99.90
13798;DHT22;6970;51.340;3.240;2023-12-28T14:23:07;12.40;99.90
13798;DHT22;6970;51.340;3.240;2023-12-28T14:25:48;12.40;99.90
13798;DHT22;6970;51.340;3.240;2023-12-28T14:28:23;12.40;99.90
13798;DHT22;6970;51.340;3.240;2023-12-28T14:30:51;12.30;99.90
13798;DHT22;6970;51.340;3.240;2023-12-28T14:33:22;12.30;99.90
13798;DHT22;6970;51.340;3.240;2023-12-28T14:35:49;12.20;99.90
13798;DHT22;6970;51.340;3.240;2023-12-28T14:38:19;12.20;99.90
13798;DHT22;6970;51.340;3.240;2023-12-28T14:40:47;12.20;99.90
13798;DHT22;6970;51.340;3.240;2023-12-28T14:43:20;12.10;99.90
13798;DHT22;6970;51.340;3.240;2023-12-28T14:45:48;12.10;99.90
13798;DHT22;6970;51.340;3.240;2023-12-28T14:48:16;12.10;99.90
13798;DHT22;6970;51.340;3.240;2023-12-28T14:50:46;12.10;99.90
13798;DHT22;6970;51.340;3.240;2023-12-28T14:53:16;12.10;99.90
13798;DHT22;6970;51.340;3.240;2023-12-28T14:55:44;12.00;99.90
13798;DHT22;6970;51.340;3.240;2023-12-28T14:58:17;12.00;99.90
13798;DHT22;6970;51.340;3.240;2023-12-28T15:00:49;12.00;99.90
13798;DHT22;6970;51.340;3.240;2023-12-28T15:03:19;12.00;99.90
13798;DHT22;6970;51.340;3.240;2023-12-28T15:05:46;12.00;99.90
13798;DHT22;6970;51.340;3.240;2023-12-28T15:08:13;12.00;99.90
13798;DHT22;6970;51.340;3.240;2023-12-28T15:10:40;12.00;99.90
13798;DHT22;6970;51.340;3.240;2023-12-28T15:13:08;12.00;99.90
13798;DHT22;6970;51.340;3.240;2023-12-28T15:15:36;12.00;99.90
13798;DHT22;6970;51.340;3.240;2023-12-28T15:18:04;11.90;99.90
13798;DHT22;6970;51.340;3.240;2023-12-28T15:20:33;11.90;99.90
13798;DHT22;6970;51.340;3.240;2023-12-28T15:23:01;11.90;99.90
13798;DHT22;6970;51.340;3.240;2023-12-28T15:25:28;11.80;99.90
13798;DHT22;6970;51.340;3.240;2023-12-28T15:27:58;11.90;99.90
13798;DHT22;6970;51.340;3.240;2023-12-28T15:30:32;11.80;99.90
13798;DHT22;6970;51.340;3.240;2023-12-28T15:33:02;11.80;99.90
13798;DHT22;6970;51.340;3.240;2023-12-28T15:35:32;11.80;99.90
13798;DHT22;6970;51.340;3.240;2023-12-28T15:38:00;11.70;99.90
13798;DHT22;6970;51.340;3.240;2023-12-28T15:40:27;11.70;99.90
13798;DHT22;6970;51.340;3.240;2023-12-28T15:43:01;11.70;99.90
13798;DHT22;6970;51.340;3.240;2023-12-28T15:45:31;11.70;99.90
13798;DHT22;6970;51.340;3.240;2023-12-28T15:48:01;11.80;99.90
13798;DHT22;6970;51.340;3.240;2023-12-28T15:50:32;11.70;99.90
13798;DHT22;6970;51.340;3.240;2023-12-28T15:53:00;11.70;99.90
13798;DHT22;6970;51.340;3.240;2023-12-28T15:55:30;11.70;99.90
13798;DHT22;6970;51.340;3.240;2023-12-28T15:58:01;11.70;99.90
13798;DHT22;6970;51.340;3.240;2023-12-28T16:00:31;11.70;99.90
13798;DHT22;6970;51.340;3.240;2023-12-28T16:03:01;11.60;99.90
13798;DHT22;6970;51.340;3.240;2023-12-28T16:05:31;11.60;99.90